NCAR-RAP Real-Time Weather Data

Output produced by METARs form (27 January 2021  15:47 UTC)
found at http://weather.rap.ucar.edu/surface/
 
 
 
 
KAAT 271455Z AUTO 06005KT 8SM SCT038 BKN048 M04/M05 A2955 RMK AO2 SNB1358E10 SLP028 P0000 60001 T10391050 53012
 
KACV 271526Z AUTO 14014G22KT 10SM SCT029 SCT090 06/03 A2954 RMK AO2 RAE1458 P0000 T00610033
 
KAJO 271456Z AUTO 00000KT 10SM BKN110 04/02 A3020 RMK AO2 SLP225 T00390022 53005
 
KAPC 271454Z 15005KT 10SM OVC045 09/06 A2977 RMK AO2 RAE12 SLP071 P0002 60006 T00940061 53020
 
 
KAUN 271535Z AUTO 16012G23KT 8SM BKN016 OVC024 05/03 A2980 RMK A01
 
KAVX 271451Z AUTO 15008KT 10SM FEW020 BKN090 OVC110 08/03 A3013 RMK AO2 SLP211 T00780033 53002
 
 
KBAN 271532Z AUTO 18003KT 3/4SM -SN VV016 M03/M06 A2966 RMK AO2 P0001 T10281061 FZRANO $
 
KBFL 271454Z 13014G22KT 10SM FEW090 11/M02 A2994 RMK AO2 SLP139 T01061017 55000
 
KBIH 271522Z AUTO 16025G34KT 1/4SM +SN FZFG VV007 M02/M03 A2992 RMK AO2 PK WND 16034/1458 P0001 T10171033
 
KBLH 271452Z AUTO 36006KT 10SM CLR 02/01 A3023 RMK AO2 SLP238 T00220006 53010
 
KBLU 271542Z AUTO 19014G28KT 1/4SM SN FZFG VV003 M03/M04 A2971 RMK AO2 PK WND 18028/1536 P0001 T10281039
 
 
 
KBUR 271453Z 14007KT 10SM BKN044 BKN095 08/00 A3014 RMK AO2 SLP203 T00780000 53005 $
 
 
 
 
KCCR 271453Z 16004KT 10SM BKN036 OVC050 10/07 A2978 RMK AO2 RAB1358E49 SLP070 P0001 60003 T01000072 53018
 
KCEC 271528Z AUTO 15027G36KT 8SM -RA BKN025 BKN035 OVC044 07/04 A2948 RMK AO2 PK WND 16036/1522 P0001 T00720044
 
KCIC 271448Z 14026G37KT 10SM OVC017 05/04 A2975 RMK -RA
 
KCMA 271455Z 07010KT 10SM BKN047 OVC055 11/03 A3012 RMK AO2 RAB45E55 SLP208 P0000 60000 T01110033 56004 $
 
KCNO 271453Z AUTO 00000KT 9SM SCT100 BKN120 06/01 A3020 RMK AO2 SLP226 T00610011 53004 $
 
 
KCQT 271452Z AUTO VRB04KT 10SM BKN042 OVC050 10/00 A3017 RMK AO2 SLP216 T01000000 53004 $
 
KCRQ 271453Z AUTO 08005KT 10SM CLR 07/M01 A3018 RMK AO2 SLP219 T00671006 53007
 
KCVH 271535Z AUTO 13004KT 10SM SCT075 SCT090 09/07 A2985 RMK A01
 
 
 
KDAG 271450Z AUTO 26004KT 10SM FEW120 03/M02 A3011 RMK AO2 SLP196 T00281017 53001
 
 
KDVO 271535Z AUTO 21008KT 6SM -RA FEW028 BKN035 OVC065 08/08 A2978 RMK AO2
 
KE16 271535Z AUTO 12006KT 10SM BKN023 OVC036 09/07 A2986 RMK AO2
 
KEDU 270950Z AUTO 15022G47KT 5SM SCT018 BKN032 OVC041 05/04 A2968 RMK AO1
 
 
KEED 271456Z AUTO 33003KT 10SM OVC085 06/01 A3024 RMK AO2 SLP237 T00560006 52013
 
 
 
KF70 271535Z AUTO 00000KT 10SM SCT090 03/00 A3018 RMK AO1
 
KFAT 271453Z 17011G17KT 9SM -RA BKN047 OVC055 09/03 A2998 RMK AO2 RAB13 SLP153 P0002 60002 T00940033 53026 $
 
 
KFOT 271530Z AUTO 10014KT 10SM BKN037 BKN043 05/05 A2957 RMK AO1
 
KFUL 271453Z 09007KT 10SM BKN110 08/01 A3017 RMK AO2 SLP217 T00830006 53005
 
KGOO 271535Z AUTO 16007G20KT 110V250 1/4SM FG 01/00 A2974 RMK A01
 
 
KHAF 271535Z AUTO 2SM BR SCT003 SCT016 BKN060 10/09 A2980 RMK AO2
 
 
 
KHHR 271453Z 10006KT 10SM BKN035 OVC044 09/01 A3018 RMK AO2 SLP218 T00940006 53006 $
 
KHJO 271453Z AUTO 15007KT 10SM OVC055 10/02 A2994 RMK AO2 SLP141 T01000022 53003 $
 
 
KHWD 271454Z 15008KT 10SM SCT075 OVC100 09/07 A2978 RMK AO2 SLP095 T00940067 53020
 
KIPL 271453Z AUTO 18005KT 10SM CLR 05/00 A3021 RMK AO2 SLP229 T00500000 53011
 
 
KIZA 271535Z AUTO 09017G22KT 4SM RA SCT029 BKN035 OVC042 07/06 A3004 RMK AO2 P0007
 
KJAQ 271535Z AUTO 13013G27KT 080V180 10SM OVC006 04/04 A2982 RMK AO1 T00400040
 
KL08 271535Z AUTO 01005KT 10SM CLR 01/M01 A3022 RMK AO2
 
KL18 271555Z AUTO 00000KT 10SM CLR 07/00 A3020 RMK AO2
 
KL35 271535Z AUTO 28015G20KT 10SM CLR M01/M09 A3004 RMK AO2
 
KL52 271535Z AUTO 14013G21KT 4SM BR BKN040 BKN045 OVC050 09/08 A2995 RMK A01
 
KLAX 271453Z 09005KT 10SM BKN032 BKN041 BKN090 09/01 A3017 RMK AO2 SLP217 T00890011 53005
 
KLGB 271453Z 09004KT 10SM SCT039 BKN046 OVC110 08/02 A3017 RMK AO2 SLP217 T00830017 53003
 
KLHM 271535Z AUTO 15016G23KT 10SM BKN025 OVC036 07/05 A2981 RMK AO1 P0002
 
 
KLPC 271505Z AUTO 13014G22KT 8SM -RA SCT017 BKN044 OVC060 10/08 A3000 RMK AO2 P0002
 
KLVK 271453Z AUTO 19006KT 10SM SCT075 10/06 A2978 RMK AO2 SLP084 60001 T01000056 53019
 
KMAE 271453Z AUTO 12011KT 10SM -RA FEW038 OVC045 08/04 A2996 RMK AO2 SLP144 P0003 60008 T00780044 53025
 
KMCC 271535Z AUTO 15020G25KT 10SM BKN030 OVC035 07/05 A2982 RMK AO2
 
KMCE 271520Z AUTO 13012KT 4SM HZ OVC050 08/04 A2990 RMK AO2 T00780039 $
 
KMER 271445Z 13017G25KT 10SM BKN050 08/08 A2988
 
 
KMHS 271543Z AUTO VRB04KT 1/4SM +SN BKN013 BKN021 OVC027 M02/M04 A2958 RMK AO2 P0001 T10171044 $
 
KMHV 271520Z AUTO 24010KT 10SM FEW048 OVC095 03/M01 A3009 RMK A01
 
KMMH 271536Z AUTO 12007KT 1/4SM SN OVC003 M07/M07 A2983 RMK AO2 P0006
 
KMOD 271453Z 14011KT 10SM OVC041 07/04 A2987 RMK AO2 SLP113 60021 T00670039 53017
 
KMRY 271454Z AUTO 18007KT 10SM OVC070 12/08 A2983 RMK AO2 SLP113 60000 T01170083 51026
 
 
KMYF 271453Z AUTO 10005KT 10SM CLR 04/00 A3019 RMK AO2 SLP222 T00440000 53007
 
KMYV 271453Z AUTO 16024G30KT 10SM -RA BKN035 OVC041 07/03 A2978 RMK AO2 PK WND 16041/1358 SLP090 P0001 60001 T00670028 53020
 
KNFG 271455Z 00000KT 10SM BKN100 03/M01 A3020 RMK AO2 SLP227 T00331006 53008 $
 
 
KNID 271456Z 07008KT 10SM BKN065 OVC080 03/01 A3010 RMK AO2 RAE34 SLP205 P0000 60002 T00280011 53010 $
 
 
KNKX 271455Z 08007KT 10SM CLR 06/00 A3018 RMK AO2 SLP220 T00560000 53008 $
 
KNLC 271456Z AUTO 03004KT 10SM -RA OVC049 08/02 A2996 RMK AO2 RAB20 PRESRR SLP146 P0000 60000 T00830022 53020 $
 
KNRS 271456Z 08007KT 10SM FEW045 SCT250 05/01 A3020 RMK AO2 SLP226 T00500011 53005 $
 
KNSI 271545Z 17016G24KT 10SM BKN025 OVC035 11/07 A3011 RMK AO2 T01110067 $
 
KNTD 271452Z 12014KT 10SM FEW025 OVC042 12/04 A3013 RMK AO2 SLP203 60000 T01170044 56005 $
 
KNUC 271456Z AUTO 15009KT 10/ A3017 RMK AO2 SLP213 T0100 53004 $
 
KNUQ 271530Z AUTO 10009KT 10SM OVC090 09/07 A2981 RMK AO2
 
 
KNXP 271456Z AUTO 13011KT 10SM CLR 06/M03 A3020 RMK AO2 SLP216 T00561028 53004
 
KNZY 271452Z 00000KT 10SM FEW045 FEW110 SCT200 07/01 A3019 RMK AO2 SLP222 T00670011 53006
 
 
KO22 271555Z AUTO VRB05G14KT 4SM BR FEW023 03/03 A2987 RMK A01 P0004
 
KO32 271530Z AUTO 19003KT 4SM -RA FEW021 BKN030 OVC049 10/05 A3000 RMK AO2
 
 
 
 
 
 
 
KOAK 271515Z 17010G18KT 10SM SCT018 BKN032 BKN080 12/07 A2979 RMK AO2 T01170072
 
KOKB 271452Z AUTO 02003KT 10SM CLR 03/02 A3019 RMK AO2 SLP223 T00330017 53009
 
KONT 271453Z 00000KT 10SM SCT090 BKN120 BKN200 06/01 A3018 RMK AO2 SLP223 T00610006 53004
 
KOVE 271453Z AUTO A2977 RMK AO2 SLPNO 53017 PWINO
 
KOXR 271451Z 06008KT 10SM -RA OVC038 09/04 A3012 RMK AO2 RAB30 SLP198 P0000 60000 T00890044 56004 $
 
KPAO 271447Z 17007KT 10SM BNK030 10/06 A2980
 
KPMD 271453Z 17005KT 10SM OVC065 01/M04 A3009 RMK AO2 SLP197 T00111044 53009
 
KPOC 271447Z VRB03KT 10SM OVC090 06/01 A3017
 
KPRB 271453Z AUTO 17015G27KT 8SM -RA OVC022 09/06 A2985 RMK AO2 PK WND 18031/1404 SLP108 P0005 60009 T00940061 55004 $
 
KPSP 271453Z 30003KT 10SM CLR 06/01 A3022 RMK AO2 SLP236 T00610011 53008
 
KPTV 271456Z AUTO 15006KT 10SM OVC070 09/03 A2994 RMK AO2 SLP139 T00940028 55007
 
KPVF 271535Z AUTO 17020G26KT 10SM SCT013 BKN022 OVC027 02/01 A2979 RMK AO1
 
KRAL 271453Z 00000KT 10SM BKN095 BKN120 05/01 A3018 RMK AO2 SLP215 T00500011 53007
 
KRBL 271454Z AUTO 16022G31KT 10SM -RA OVC011 06/03 A2970 RMK AO2 PK WND 17031/1451 SLP056 P0000 60000 T00560028 53014
 
KRDD 271531Z 19015G22KT 6SM -RA BR OVC009 04/02 A2967 RMK AO2 PK WND 18027/1455 RAB1454SNE1454 P0002 T00390022
 
 
 
 
KRNM 271453Z AUTO 00000KT 6SM BR CLR M02/M03 A3017 RMK AO2 SLP224 T10221033 53007
 
KSAC 271453Z 15015G26KT 6SM -RA BKN033 OVC043 07/04 A2980 RMK AO2 PK WND 13029/1355 RAB32 SLP092 P0001 60001 T00670039 53015
 
KSAN 271451Z 00000KT 10SM FEW050 FEW110 SCT250 07/01 A3021 RMK AO2 SLP229 T00670006 53006
 
KSBA 271531Z 09012KT 2 1/2SM RA BR OVC021 09/07 A3009 RMK AO2 P0012 T00890067 $
 
KSBD 271450Z 00000KT 7SM SCT070 BKN080 05/00 A3018
 
KSBP 271456Z 13021G32KT 4SM RA BR FEW016 OVC031 09/07 A2993 RMK AO2 PK WND 14032/1427 SLP134 P0013 60035 T00890072 56002
 
KSCK 271455Z AUTO 15019G26KT 10SM CLR 07/04 A2983 RMK AO2 PK WND 15028/1358 SLP099 60001 T00720044 53008
 
KSDB 271453Z AUTO 16015G23KT M1/4SM SN FG VV001 00/M01 A3002 RMK AO2 PK WND 15031/1441 SLP167 P0001 60001 T00001011 53010 $
 
KSDM 271453Z AUTO 14007KT 10SM CLR 05/M01 A3018 RMK AO2 SLP222 T00501006 53005
 
KSEE 271447Z 00000KT 10SM SKC 01/00 A3020
 
KSFO 271456Z 19006KT 8SM FEW026 BKN100 12/07 A2977 RMK AO2 SLP082 T01220072 53021 $
 
KSIY 271453Z AUTO 19011KT 10SM BKN043 BKN070 OVC090 02/M04 A2953 RMK AO2 SLP021 T00171039 53008
 
KSJC 271453Z 13009KT 10SM FEW014 SCT023 SCT055 08/07 A2981 RMK AO2 SLP093 T00830067 53022
 
 
KSMF 271534Z 16017G23KT 6SM RA BKN028 OVC033 07/04 A2982 RMK AO2 PK WND 15026/1455 P0005 T00720044
 
KSMO 271451Z AUTO 08004KT 10SM SCT032 BKN055 OVC110 09/01 A3017 RMK AO2 SLP216 T00890011 53004
 
KSMX 271451Z 15017G27KT 5SM RA BR OVC055 09/07 A2997 RMK AO2 PK WND 14029/1424 SLP153 P0010 60024 T00890067 55006 $
 
KSNA 271453Z 07005KT 10SM FEW038 SCT100 BKN200 09/02 A3017 RMK AO2 SLP217 T00940022 53005
 
KSNS 271453Z 14013KT 10SM SCT028 BKN070 OVC090 09/08 A2984 RMK AO2 SLP113 60011 T00940078 53019
 
KSQL 271455Z AUTO 10SM BKN033 09/07 A2980 RMK AO2
 
KSTS 271453Z AUTO 13004KT 10SM FEW035 06/04 A2975 RMK AO2 SLP067 60004 T00560044 53028
 
 
KSVE 271535Z AUTO 00000KT 2SM -SN SCT010 OVC016 01/M01 A2964 RMK AO2
 
 
 
KTRK 271445Z 20018G16KT 02SM -SN BKN014 OVC025 M01/M04 A2966
 
KTRM 271452Z AUTO 24004KT 10SM CLR 04/02 A3022 RMK AO2 SLP231 T00440017 53008
 
 
KTVL 271535Z AUTO 19010KT 3SM -SN OVC023 M02/M05 A2967 RMK AO2 P0000 T10221050
 
KUKI 271456Z AUTO 35003KT 7SM -RA FEW003 BKN027 OVC032 03/01 A2971 RMK AO2 RAB1357 SLP059 P0004 60009 T00280011 53021 $
 
 
KVCB 271541Z AUTO 16007KT 10SM FEW009 BKN014 OVC040 06/05 A2981 RMK AO2 RAE01 P0000 T00610050
 
KVCV 271445Z 15005KT 10SM BKN040 A3008
 
KVIS 271456Z AUTO 15011KT 10SM -RA OVC060 11/02 A2993 RMK AO2 RAB54 SLP146 P0000 60000 T01110022 55001
 
KVNY 271451Z 13007KT 10SM FEW043 BKN055 BKN080 09/01 A3014 RMK AO2 SLP205 T00940006 53005
 
 
KWJF 271456Z 04003KT 10SM BKN048 OVC060 02/M04 A3009 RMK AO2 SLP204 T00221039 53010
 
KWVI 271527Z AUTO 00000KT 10SM BKN015 OVC024 09/08 A2984 RMK AO2 T00940078